Terminal Aerodrome Forecast
Issued by NWS Quad Cities IA IL

Home | Current Version | Previous Version | Graphics & Text | Print | Product List | Glossary On
Versions: 1 2 3 4 5 6 7 8 9 10 11 12 13 14 15 16 17 18 19
000
FTUS43 KDVN 040520
TAFMLI
TAF
KMLI 040520Z 0406/0506 20007KT P6SM VCTS FEW050CB BKN150
      TEMPO 0406/0410 3SM TSRA BR BKN030CB OVC080
     FM041000 VRB05KT P6SM VCSH SCT040 BKN090
     FM041500 05004KT P6SM SCT050 BKN110
     FM050000 07005KT P6SM VCTS BKN050CB OVC110 PROB30 0500/0506 2SM
      TSRA BKN024CB OVC040=

USA.gov is the U.S. government's official web portal to all federal, state and local government web resources and services.